Avalon — PBSF — position and weather

sailwx.info

Track history (hours):
 
Tides and Currents Weather Stations Pressure Air Temp Water Temp Dewpoint Dewpoint Depression Visibility Wind Speed Wind Dir Waves Ship Positions

Avalon

Last reported at 2016-Jul-25 11:32 UTC. Time now 2016-Jul-28 18:25 UTC.
Position N 55°38' E 010°41'.

Length 89 m; draft 3.9 m.

Type: Cargo ship. MMSI: 246578000.

Date/timePositionNaut miles runAvg speedWind from/ knotsBaromVisibWave heightAir tempDewpointWater temp
2016-Jul-25 11:32N 55°38' E 010°41'1110.8
2016-Jul-25 10:30N 55°30' E 010°54'1011.0
2016-Jul-25 09:33N 55°21' E 011°02'9 8.4
2016-Jul-25 08:32N 55°17' E 010°49'1 1.0
2016-Jul-25 07:29N 55°18' E 010°49'0 0.0
2016-Jul-25 06:17N 55°18' E 010°49'0 0.0
2016-Jul-25 04:20N 55°18' E 010°49'0 0.0
2016-Jul-25 03:32N 55°18' E 010°49'0 0.0
2016-Jul-25 02:26N 55°18' E 010°49'0 0.0
2016-Jul-25 01:29N 55°18' E 010°49'0 0.0
2016-Jul-25 00:26N 55°18' E 010°49'0 0.0
2016-Jul-24 23:32N 55°18' E 010°49'0 0.0
2016-Jul-24 22:32N 55°18' E 010°49'0 0.0
2016-Jul-24 21:32N 55°18' E 010°49'0 0.0
2016-Jul-24 20:33N 55°18' E 010°49'0 0.0
2016-Jul-24 19:33N 55°18' E 010°49'0 0.0
2016-Jul-24 18:27N 55°18' E 010°49'0 0.0
2016-Jul-24 17:30N 55°18' E 010°49'0 0.0
2016-Jul-24 16:34N 55°18' E 010°49'0 0.0
2016-Jul-24 15:33N 55°18' E 010°49'2 1.6
2016-Jul-24 14:32N 55°17' E 010°50'10 9.7
2016-Jul-24 13:31N 55°11' E 011°05'1212.2
2016-Jul-24 12:33N 54°60' E 011°02'1312.7
2016-Jul-24 11:33N 54°49' E 010°51'1111.4
2016-Jul-24 10:33N 54°38' E 010°43'1110.8
2016-Jul-24 09:33N 54°32' E 010°28'1010.5
2016-Jul-24 08:33N 54°26' E 010°13'5 4.6
2016-Jul-24 07:33N 54°22' E 010°08'3 2.6
2016-Jul-24 06:33N 54°22' E 010°04'6 6.5
2016-Jul-24 05:33N 54°21' E 009°53'7 7.1
2016-Jul-24 04:32N 54°18' E 009°42'8 7.9
2016-Jul-24 03:33N 54°12' E 009°34'7 6.3
2016-Jul-24 02:26N 54°09' E 009°22'7 7.5
2016-Jul-24 01:34N 54°03' E 009°18'8 8.3
2016-Jul-24 00:33N 53°56' E 009°12'3 2.9
2016-Jul-23 23:33N 53°54' E 009°09'4 4.5
2016-Jul-23 22:33N 53°52' E 009°02'8 8.2
2016-Jul-23 21:33N 53°50' E 008°48'7 7.3
2016-Jul-23 20:33N 53°56' E 008°40'7 7.3
2016-Jul-23 19:33N 53°59' E 008°28'8 8.3
2016-Jul-23 18:33N 53°59' E 008°14'10 9.7
2016-Jul-23 17:33N 53°58' E 007°58'10 9.6
2016-Jul-23 16:33N 53°55' E 007°42'10 9.6
2016-Jul-23 15:33N 53°53' E 007°27'10 9.9
2016-Jul-23 14:33N 53°51' E 007°10'1010.4
2016-Jul-23 13:33N 53°48' E 006°53'1110.8
2016-Jul-23 12:33N 53°46' E 006°35'1211.6
2016-Jul-23 11:33N 53°43' E 006°16'1211.7
2016-Jul-23 10:33N 53°39' E 005°58'1211.8
2016-Jul-23 09:33N 53°35' E 005°39'1211.9
2016-Jul-23 08:33N 53°32' E 005°19'1212.2
2016-Jul-23 07:33N 53°28' E 005°00'1312.0
2016-Jul-23 06:29N 53°22' E 004°41'2412.4
2016-Jul-23 04:34N 52°58' E 004°32'1211.8
2016-Jul-23 03:33N 52°46' E 004°31'1110.6
2016-Jul-23 02:33N 52°36' E 004°31'8 8.3
2016-Jul-23 01:33N 52°28' E 004°35'2 1.5
2016-Jul-23 00:33N 52°28' E 004°38'0 0.0
2016-Jul-22 23:33N 52°28' E 004°38'0 0.0
2016-Jul-22 22:33N 52°28' E 004°38'0 0.0
2016-Jul-22 21:33N 52°28' E 004°38'0 0.0
2016-Jul-22 20:33N 52°28' E 004°38'0 0.0
2016-Jul-22 19:33N 52°28' E 004°38'0 0.0
2016-Jul-22 18:33N 52°28' E 004°38'0 0.0
2016-Jul-22 17:33N 52°28' E 004°38'0 0.0
2016-Jul-22 16:33N 52°28' E 004°38'0 0.0
2016-Jul-22 15:33N 52°28' E 004°38'0 0.0
2016-Jul-22 13:33N 52°28' E 004°38'0 0.0
2016-Jul-22 12:27N 52°28' E 004°38'0 0.0
2016-Jul-22 11:33N 52°28' E 004°38'0 0.0
2016-Jul-22 10:33N 52°28' E 004°38'0 0.0
2016-Jul-22 09:30N 52°28' E 004°38'0 0.0
2016-Jul-22 08:33N 52°28' E 004°38'0 0.0
2016-Jul-22 07:33N 52°28' E 004°38'0 0.0
2016-Jul-22 05:33N 52°28' E 004°38'0 0.0
2016-Jul-22 04:33N 52°28' E 004°38'0 0.0
2016-Jul-22 03:33N 52°28' E 004°38'0 0.0
2016-Jul-22 02:33N 52°28' E 004°38'0 0.0
2016-Jul-22 01:33N 52°28' E 004°38'0 0.0
2016-Jul-22 00:33N 52°28' E 004°38'0 0.0
2016-Jul-21 23:33N 52°28' E 004°38'0 0.0
2016-Jul-21 22:33N 52°28' E 004°38'0 0.0
2016-Jul-21 21:33N 52°28' E 004°38'0 0.0
2016-Jul-21 20:33N 52°28' E 004°38'0 0.0
2016-Jul-21 19:33N 52°28' E 004°38'0 0.0
2016-Jul-21 17:33N 52°28' E 004°38'0 0.0
2016-Jul-21 15:33N 52°28' E 004°38'0 0.0
2016-Jul-21 14:33N 52°28' E 004°38'0 0.0
2016-Jul-21 13:33N 52°28' E 004°38'0 0.0
2016-Jul-21 12:33N 52°28' E 004°38'0 0.0
2016-Jul-21 11:33N 52°28' E 004°38'0 0.0
2016-Jul-21 10:33N 52°28' E 004°38'0 0.0
2016-Jul-21 09:33N 52°28' E 004°38'0 0.0
2016-Jul-21 08:33N 52°28' E 004°38'0 0.0
2016-Jul-21 07:33N 52°28' E 004°38'0 0.0
2016-Jul-21 06:34N 52°28' E 004°38'3 2.6
2016-Jul-21 05:34N 52°28' E 004°34'9 8.6
2016-Jul-21 04:33N 52°28' E 004°20'8 8.5
2016-Jul-21 03:33N 52°28' E 004°06'9 9.4
2016-Jul-21 02:33N 52°26' E 003°50'9 9.3
2016-Jul-21 01:33N 52°20' E 003°39'1010.1
2016-Jul-21 00:33N 52°11' E 003°31'9 9.0
2016-Jul-20 23:33N 52°03' E 003°27'9 8.2
2016-Jul-20 22:31N 51°55' E 003°23'8 8.1
2016-Jul-20 21:33N 51°48' E 003°17'8 8.1
2016-Jul-20 20:33N 51°40' E 003°20'1010.1
2016-Jul-20 19:33N 51°31' E 003°27'1010.1
2016-Jul-20 18:33N 51°26' E 003°41'1010.2
2016-Jul-20 17:33N 51°23' E 003°57'8 8.0
2016-Jul-20 16:33N 51°23' E 004°10'9 8.8
2016-Jul-20 15:33N 51°17' E 004°19'5 4.8
2016-Jul-20 14:33N 51°12' E 004°21'5 5.3
2016-Jul-20 13:33N 51°07' E 004°18'3 3.2
2016-Jul-20 12:33N 51°05' E 004°22'0 0.1
2016-Jul-20 11:28N 51°05' E 004°22'0 0.0
2016-Jul-20 10:31N 51°05' E 004°22'0 0.0
2016-Jul-20 09:31N 51°05' E 004°22'0 0.0
2016-Jul-20 08:19N 51°05' E 004°22'0 0.0
2016-Jul-20 07:31N 51°05' E 004°22'0 0.0
2016-Jul-20 06:25N 51°05' E 004°22'0 0.0
2016-Jul-20 05:31N 51°05' E 004°22'0 0.0
2016-Jul-20 04:31N 51°05' E 004°22'0 0.0
2016-Jul-20 03:28N 51°05' E 004°22'0 0.0
2016-Jul-20 02:25N 51°05' E 004°22'0 0.0
2016-Jul-20 01:31N 51°05' E 004°22'0 0.0
2016-Jul-20 00:28N 51°05' E 004°22'0 0.0
2016-Jul-19 23:31N 51°05' E 004°22'0 0.0
2016-Jul-19 22:31N 51°05' E 004°22'0 0.0
2016-Jul-19 21:31N 51°05' E 004°22'0 0.0
2016-Jul-19 20:31N 51°05' E 004°22'0 0.0
2016-Jul-19 19:31N 51°05' E 004°22'0 0.0
2016-Jul-19 18:31N 51°05' E 004°22'0 0.0
2016-Jul-19 17:31N 51°05' E 004°22'0 0.0
2016-Jul-19 16:31N 51°05' E 004°22'0 0.0
2016-Jul-19 15:31N 51°05' E 004°22'0 0.0
2016-Jul-19 14:31N 51°05' E 004°22'0 0.0
2016-Jul-19 13:31N 51°05' E 004°22'0 0.1
2016-Jul-19 12:33N 51°05' E 004°22'3 3.3
2016-Jul-19 11:33N 51°07' E 004°18'0 0.3
2016-Jul-19 10:34N 51°07' E 004°18'6 5.9
2016-Jul-19 09:33N 51°13' E 004°23'6 6.1
2016-Jul-19 08:34N 51°18' E 004°18'7 7.4
2016-Jul-19 07:33N 51°24' E 004°11'17 5.6
2016-Jul-19 04:34N 51°22' E 003°44'7 6.9
2016-Jul-19 03:34N 51°26' E 003°34'8 8.0
2016-Jul-19 02:33N 51°31' E 003°26'9 9.1
2016-Jul-19 01:33N 51°40' E 003°19'8 8.5
2016-Jul-19 00:34N 51°48' E 003°15'9 9.1
2016-Jul-18 23:33N 51°57' E 003°19'1010.3
2016-Jul-18 22:33N 52°07' E 003°23'1111.1
2016-Jul-18 21:34N 52°16' E 003°33'1111.5
2016-Jul-18 20:33N 52°26' E 003°41'1211.6
2016-Jul-18 19:33N 52°37' E 003°50'1211.4
2016-Jul-18 18:33N 52°47' E 003°57'1110.4
2016-Jul-18 17:32N 52°58' E 004°02'9 9.6
2016-Jul-18 16:34N 53°04' E 004°13'9 9.0
2016-Jul-18 15:33N 53°10' E 004°24'9 8.8
2016-Jul-18 14:33N 53°18' E 004°30'10 9.9
2016-Jul-18 13:33N 53°27' E 004°37'1110.9
2016-Jul-18 12:34N 53°32' E 004°53'1111.2
2016-Jul-18 11:34N 53°35' E 005°11'1110.8
2016-Jul-18 10:33N 53°39' E 005°29'1010.2
2016-Jul-18 09:33N 53°42' E 005°45'10 9.6
2016-Jul-18 08:33N 53°45' E 006°00'9 9.0
2016-Jul-18 07:33N 53°48' E 006°15'9 8.5
2016-Jul-18 06:33N 53°50' E 006°28'8 8.3
2016-Jul-18 05:33N 53°52' E 006°42'9 9.1
2016-Jul-18 04:33N 53°55' E 006°57'1010.0
2016-Jul-18 03:33N 53°57' E 007°13'1010.5
2016-Jul-18 02:33N 53°60' E 007°31'1010.5
2016-Jul-18 01:34N 54°02' E 007°48'1110.6
2016-Jul-18 00:33N 54°01' E 008°06'1110.9
2016-Jul-17 23:33N 53°59' E 008°25'10 9.8
2016-Jul-17 22:33N 53°56' E 008°40'8 7.8
2016-Jul-17 21:33N 53°51' E 008°49'8 7.6
2016-Jul-17 20:33N 53°52' E 009°02'5 4.7
2016-Jul-17 19:33N 53°54' E 009°09'0 0.0
2016-Jul-17 18:34N 53°54' E 009°09'2 2.1
2016-Jul-17 17:33N 53°55' E 009°12'8 8.2
2016-Jul-17 16:33N 54°03' E 009°18'8 7.9
2016-Jul-17 15:33N 54°10' E 009°24'8 8.1
2016-Jul-17 14:33N 54°14' E 009°36'7 6.8
2016-Jul-17 13:33N 54°19' E 009°43'6 6.2
2016-Jul-17 12:33N 54°21' E 009°53'6 6.2
2016-Jul-17 11:33N 54°22' E 010°04'3 2.9
2016-Jul-17 10:34N 54°22' E 010°09'7 7.3
2016-Jul-17 09:34N 54°28' E 010°15'1010.2
2016-Jul-17 08:34N 54°33' E 010°31'1010.0
2016-Jul-17 07:33N 54°35' E 010°48'10 9.7
2016-Jul-17 06:34N 54°36' E 011°04'19 9.6
2016-Jul-17 04:34N 54°29' E 011°35'9 9.2
2016-Jul-17 03:33N 54°27' E 011°51'10 9.9
2016-Jul-17 02:33N 54°27' E 012°08'10 9.9
2016-Jul-17 01:33N 54°36' E 012°15'1010.0
2016-Jul-17 00:33N 54°42' E 012°29'12 9.9
2016-Jul-16 23:23N 54°48' E 012°46'910.2
2016-Jul-16 22:32N 54°51' E 013°01'1010.1
2016-Jul-16 21:33N 54°54' E 013°17'10 9.8
2016-Jul-16 20:33N 54°58' E 013°33'10 9.6
2016-Jul-16 19:33N 55°01' E 013°49'9 9.5
2016-Jul-16 18:33N 55°04' E 014°04'9 9.4
2016-Jul-16 17:33N 55°11' E 014°16'9 9.4
2016-Jul-16 16:33N 55°18' E 014°26'9 9.5
2016-Jul-16 15:34N 55°26' E 014°36'9 9.1
2016-Jul-16 14:33N 55°30' E 014°50'9 9.1
2016-Jul-16 13:33N 55°35' E 015°04'9 9.0
2016-Jul-16 12:33N 55°39' E 015°17'  
Track history (hours):
 
Tides and Currents Weather Stations Pressure Air Temp Water Temp Dewpoint Dewpoint Depression Visibility Wind Speed Wind Dir Waves Ship Positions

Avalon

Last reported at 2016-Jul-25 11:32 UTC. Time now 2016-Jul-28 18:25 UTC.
Position N 55°38' E 010°41'.

Length 89 m; draft 3.9 m.

Type: Cargo ship. MMSI: 246578000.

Date/timePositionNaut miles runAvg speedWind from/ knotsBaromVisibWave heightAir tempDewpointWater temp
2016-Jul-25 11:32N 55°38' E 010°41'1110.8
2016-Jul-25 10:30N 55°30' E 010°54'1011.0
2016-Jul-25 09:33N 55°21' E 011°02'9 8.4
2016-Jul-25 08:32N 55°17' E 010°49'1 1.0
2016-Jul-25 07:29N 55°18' E 010°49'0 0.0
2016-Jul-25 06:17N 55°18' E 010°49'0 0.0
2016-Jul-25 04:20N 55°18' E 010°49'0 0.0
2016-Jul-25 03:32N 55°18' E 010°49'0 0.0
2016-Jul-25 02:26N 55°18' E 010°49'0 0.0
2016-Jul-25 01:29N 55°18' E 010°49'0 0.0
2016-Jul-25 00:26N 55°18' E 010°49'0 0.0
2016-Jul-24 23:32N 55°18' E 010°49'0 0.0
2016-Jul-24 22:32N 55°18' E 010°49'0 0.0
2016-Jul-24 21:32N 55°18' E 010°49'0 0.0
2016-Jul-24 20:33N 55°18' E 010°49'0 0.0
2016-Jul-24 19:33N 55°18' E 010°49'0 0.0
2016-Jul-24 18:27N 55°18' E 010°49'0 0.0
2016-Jul-24 17:30N 55°18' E 010°49'0 0.0
2016-Jul-24 16:34N 55°18' E 010°49'0 0.0
2016-Jul-24 15:33N 55°18' E 010°49'2 1.6
2016-Jul-24 14:32N 55°17' E 010°50'10 9.7
2016-Jul-24 13:31N 55°11' E 011°05'1212.2
2016-Jul-24 12:33N 54°60' E 011°02'1312.7
2016-Jul-24 11:33N 54°49' E 010°51'1111.4
2016-Jul-24 10:33N 54°38' E 010°43'1110.8
2016-Jul-24 09:33N 54°32' E 010°28'1010.5
2016-Jul-24 08:33N 54°26' E 010°13'5 4.6
2016-Jul-24 07:33N 54°22' E 010°08'3 2.6
2016-Jul-24 06:33N 54°22' E 010°04'6 6.5
2016-Jul-24 05:33N 54°21' E 009°53'7 7.1
2016-Jul-24 04:32N 54°18' E 009°42'8 7.9
2016-Jul-24 03:33N 54°12' E 009°34'7 6.3
2016-Jul-24 02:26N 54°09' E 009°22'7 7.5
2016-Jul-24 01:34N 54°03' E 009°18'8 8.3
2016-Jul-24 00:33N 53°56' E 009°12'3 2.9
2016-Jul-23 23:33N 53°54' E 009°09'4 4.5
2016-Jul-23 22:33N 53°52' E 009°02'8 8.2
2016-Jul-23 21:33N 53°50' E 008°48'7 7.3
2016-Jul-23 20:33N 53°56' E 008°40'7 7.3
2016-Jul-23 19:33N 53°59' E 008°28'8 8.3
2016-Jul-23 18:33N 53°59' E 008°14'10 9.7
2016-Jul-23 17:33N 53°58' E 007°58'10 9.6
2016-Jul-23 16:33N 53°55' E 007°42'10 9.6
2016-Jul-23 15:33N 53°53' E 007°27'10 9.9
2016-Jul-23 14:33N 53°51' E 007°10'1010.4
2016-Jul-23 13:33N 53°48' E 006°53'1110.8
2016-Jul-23 12:33N 53°46' E 006°35'1211.6
2016-Jul-23 11:33N 53°43' E 006°16'1211.7
2016-Jul-23 10:33N 53°39' E 005°58'1211.8
2016-Jul-23 09:33N 53°35' E 005°39'1211.9
2016-Jul-23 08:33N 53°32' E 005°19'1212.2
2016-Jul-23 07:33N 53°28' E 005°00'1312.0
2016-Jul-23 06:29N 53°22' E 004°41'2412.4
2016-Jul-23 04:34N 52°58' E 004°32'1211.8
2016-Jul-23 03:33N 52°46' E 004°31'1110.6
2016-Jul-23 02:33N 52°36' E 004°31'8 8.3
2016-Jul-23 01:33N 52°28' E 004°35'2 1.5
2016-Jul-23 00:33N 52°28' E 004°38'0 0.0
2016-Jul-22 23:33N 52°28' E 004°38'0 0.0
2016-Jul-22 22:33N 52°28' E 004°38'0 0.0
2016-Jul-22 21:33N 52°28' E 004°38'0 0.0
2016-Jul-22 20:33N 52°28' E 004°38'0 0.0
2016-Jul-22 19:33N 52°28' E 004°38'0 0.0
2016-Jul-22 18:33N 52°28' E 004°38'0 0.0
2016-Jul-22 17:33N 52°28' E 004°38'0 0.0
2016-Jul-22 16:33N 52°28' E 004°38'0 0.0
2016-Jul-22 15:33N 52°28' E 004°38'0 0.0
2016-Jul-22 13:33N 52°28' E 004°38'0 0.0
2016-Jul-22 12:27N 52°28' E 004°38'0 0.0
2016-Jul-22 11:33N 52°28' E 004°38'0 0.0
2016-Jul-22 10:33N 52°28' E 004°38'0 0.0
2016-Jul-22 09:30N 52°28' E 004°38'0 0.0
2016-Jul-22 08:33N 52°28' E 004°38'0 0.0
2016-Jul-22 07:33N 52°28' E 004°38'0 0.0
2016-Jul-22 05:33N 52°28' E 004°38'0 0.0
2016-Jul-22 04:33N 52°28' E 004°38'0 0.0
2016-Jul-22 03:33N 52°28' E 004°38'0 0.0
2016-Jul-22 02:33N 52°28' E 004°38'0 0.0
2016-Jul-22 01:33N 52°28' E 004°38'0 0.0
2016-Jul-22 00:33N 52°28' E 004°38'0 0.0
2016-Jul-21 23:33N 52°28' E 004°38'0 0.0
2016-Jul-21 22:33N 52°28' E 004°38'0 0.0
2016-Jul-21 21:33N 52°28' E 004°38'0 0.0
2016-Jul-21 20:33N 52°28' E 004°38'0 0.0
2016-Jul-21 19:33N 52°28' E 004°38'0 0.0
2016-Jul-21 17:33N 52°28' E 004°38'0 0.0
2016-Jul-21 15:33N 52°28' E 004°38'0 0.0
2016-Jul-21 14:33N 52°28' E 004°38'0 0.0
2016-Jul-21 13:33N 52°28' E 004°38'0 0.0
2016-Jul-21 12:33N 52°28' E 004°38'0 0.0
2016-Jul-21 11:33N 52°28' E 004°38'0 0.0
2016-Jul-21 10:33N 52°28' E 004°38'0 0.0
2016-Jul-21 09:33N 52°28' E 004°38'0 0.0
2016-Jul-21 08:33N 52°28' E 004°38'0 0.0
2016-Jul-21 07:33N 52°28' E 004°38'0 0.0
2016-Jul-21 06:34N 52°28' E 004°38'3 2.6
2016-Jul-21 05:34N 52°28' E 004°34'9 8.6
2016-Jul-21 04:33N 52°28' E 004°20'8 8.5
2016-Jul-21 03:33N 52°28' E 004°06'9 9.4
2016-Jul-21 02:33N 52°26' E 003°50'9 9.3
2016-Jul-21 01:33N 52°20' E 003°39'1010.1
2016-Jul-21 00:33N 52°11' E 003°31'9 9.0
2016-Jul-20 23:33N 52°03' E 003°27'9 8.2
2016-Jul-20 22:31N 51°55' E 003°23'8 8.1
2016-Jul-20 21:33N 51°48' E 003°17'8 8.1
2016-Jul-20 20:33N 51°40' E 003°20'1010.1
2016-Jul-20 19:33N 51°31' E 003°27'1010.1
2016-Jul-20 18:33N 51°26' E 003°41'1010.2
2016-Jul-20 17:33N 51°23' E 003°57'8 8.0
2016-Jul-20 16:33N 51°23' E 004°10'9 8.8
2016-Jul-20 15:33N 51°17' E 004°19'5 4.8
2016-Jul-20 14:33N 51°12' E 004°21'5 5.3
2016-Jul-20 13:33N 51°07' E 004°18'3 3.2
2016-Jul-20 12:33N 51°05' E 004°22'0 0.1
2016-Jul-20 11:28N 51°05' E 004°22'0 0.0
2016-Jul-20 10:31N 51°05' E 004°22'0 0.0
2016-Jul-20 09:31N 51°05' E 004°22'0 0.0
2016-Jul-20 08:19N 51°05' E 004°22'0 0.0
2016-Jul-20 07:31N 51°05' E 004°22'0 0.0
2016-Jul-20 06:25N 51°05' E 004°22'0 0.0
2016-Jul-20 05:31N 51°05' E 004°22'0 0.0
2016-Jul-20 04:31N 51°05' E 004°22'0 0.0
2016-Jul-20 03:28N 51°05' E 004°22'0 0.0
2016-Jul-20 02:25N 51°05' E 004°22'0 0.0
2016-Jul-20 01:31N 51°05' E 004°22'0 0.0
2016-Jul-20 00:28N 51°05' E 004°22'0 0.0
2016-Jul-19 23:31N 51°05' E 004°22'0 0.0
2016-Jul-19 22:31N 51°05' E 004°22'0 0.0
2016-Jul-19 21:31N 51°05' E 004°22'0 0.0
2016-Jul-19 20:31N 51°05' E 004°22'0 0.0
2016-Jul-19 19:31N 51°05' E 004°22'0 0.0
2016-Jul-19 18:31N 51°05' E 004°22'0 0.0
2016-Jul-19 17:31N 51°05' E 004°22'0 0.0
2016-Jul-19 16:31N 51°05' E 004°22'0 0.0
2016-Jul-19 15:31N 51°05' E 004°22'0 0.0
2016-Jul-19 14:31N 51°05' E 004°22'0 0.0
2016-Jul-19 13:31N 51°05' E 004°22'0 0.1
2016-Jul-19 12:33N 51°05' E 004°22'3 3.3
2016-Jul-19 11:33N 51°07' E 004°18'0 0.3
2016-Jul-19 10:34N 51°07' E 004°18'6 5.9
2016-Jul-19 09:33N 51°13' E 004°23'6 6.1
2016-Jul-19 08:34N 51°18' E 004°18'7 7.4
2016-Jul-19 07:33N 51°24' E 004°11'17 5.6
2016-Jul-19 04:34N 51°22' E 003°44'7 6.9
2016-Jul-19 03:34N 51°26' E 003°34'8 8.0
2016-Jul-19 02:33N 51°31' E 003°26'9 9.1
2016-Jul-19 01:33N 51°40' E 003°19'8 8.5
2016-Jul-19 00:34N 51°48' E 003°15'9 9.1
2016-Jul-18 23:33N 51°57' E 003°19'1010.3
2016-Jul-18 22:33N 52°07' E 003°23'1111.1
2016-Jul-18 21:34N 52°16' E 003°33'1111.5
2016-Jul-18 20:33N 52°26' E 003°41'1211.6
2016-Jul-18 19:33N 52°37' E 003°50'1211.4
2016-Jul-18 18:33N 52°47' E 003°57'1110.4
2016-Jul-18 17:32N 52°58' E 004°02'9 9.6
2016-Jul-18 16:34N 53°04' E 004°13'9 9.0
2016-Jul-18 15:33N 53°10' E 004°24'9 8.8
2016-Jul-18 14:33N 53°18' E 004°30'10 9.9
2016-Jul-18 13:33N 53°27' E 004°37'1110.9
2016-Jul-18 12:34N 53°32' E 004°53'1111.2
2016-Jul-18 11:34N 53°35' E 005°11'1110.8
2016-Jul-18 10:33N 53°39' E 005°29'1010.2
2016-Jul-18 09:33N 53°42' E 005°45'10 9.6
2016-Jul-18 08:33N 53°45' E 006°00'9 9.0
2016-Jul-18 07:33N 53°48' E 006°15'9 8.5
2016-Jul-18 06:33N 53°50' E 006°28'8 8.3
2016-Jul-18 05:33N 53°52' E 006°42'9 9.1
2016-Jul-18 04:33N 53°55' E 006°57'1010.0
2016-Jul-18 03:33N 53°57' E 007°13'1010.5
2016-Jul-18 02:33N 53°60' E 007°31'1010.5
2016-Jul-18 01:34N 54°02' E 007°48'1110.6
2016-Jul-18 00:33N 54°01' E 008°06'1110.9
2016-Jul-17 23:33N 53°59' E 008°25'10 9.8
2016-Jul-17 22:33N 53°56' E 008°40'8 7.8
2016-Jul-17 21:33N 53°51' E 008°49'8 7.6
2016-Jul-17 20:33N 53°52' E 009°02'5 4.7
2016-Jul-17 19:33N 53°54' E 009°09'0 0.0
2016-Jul-17 18:34N 53°54' E 009°09'2 2.1
2016-Jul-17 17:33N 53°55' E 009°12'8 8.2
2016-Jul-17 16:33N 54°03' E 009°18'8 7.9
2016-Jul-17 15:33N 54°10' E 009°24'8 8.1
2016-Jul-17 14:33N 54°14' E 009°36'7 6.8
2016-Jul-17 13:33N 54°19' E 009°43'6 6.2
2016-Jul-17 12:33N 54°21' E 009°53'6 6.2
2016-Jul-17 11:33N 54°22' E 010°04'3 2.9
2016-Jul-17 10:34N 54°22' E 010°09'7 7.3
2016-Jul-17 09:34N 54°28' E 010°15'1010.2
2016-Jul-17 08:34N 54°33' E 010°31'1010.0
2016-Jul-17 07:33N 54°35' E 010°48'10 9.7
2016-Jul-17 06:34N 54°36' E 011°04'19 9.6
2016-Jul-17 04:34N 54°29' E 011°35'9 9.2
2016-Jul-17 03:33N 54°27' E 011°51'10 9.9
2016-Jul-17 02:33N 54°27' E 012°08'10 9.9
2016-Jul-17 01:33N 54°36' E 012°15'1010.0
2016-Jul-17 00:33N 54°42' E 012°29'12 9.9
2016-Jul-16 23:23N 54°48' E 012°46'910.2
2016-Jul-16 22:32N 54°51' E 013°01'1010.1
2016-Jul-16 21:33N 54°54' E 013°17'10 9.8
2016-Jul-16 20:33N 54°58' E 013°33'10 9.6
2016-Jul-16 19:33N 55°01' E 013°49'9 9.5
2016-Jul-16 18:33N 55°04' E 014°04'9 9.4
2016-Jul-16 17:33N 55°11' E 014°16'9 9.4
2016-Jul-16 16:33N 55°18' E 014°26'9 9.5
2016-Jul-16 15:34N 55°26' E 014°36'9 9.1
2016-Jul-16 14:33N 55°30' E 014°50'9 9.1
2016-Jul-16 13:33N 55°35' E 015°04'9 9.0
2016-Jul-16 12:33N 55°39' E 015°17'  

Dump ship's entire track history